createdAt,value
2018-08-17T00:00:47.054Z,3.57
2018-08-17T00:03:13.772Z,3.00
2018-08-17T00:05:39.764Z,2.13
2018-08-17T00:08:05.802Z,2.53
2018-08-17T00:10:31.784Z,3.47
2018-08-17T00:12:57.772Z,1.83
2018-08-17T00:15:23.801Z,2.97
2018-08-17T00:17:50.533Z,4.63
2018-08-17T00:20:16.477Z,2.87
2018-08-17T00:22:42.453Z,2.97
2018-08-17T00:25:08.443Z,4.83
2018-08-17T00:27:34.402Z,5.50
2018-08-17T00:30:00.375Z,6.47
2018-08-17T00:32:26.337Z,4.53
2018-08-17T00:34:52.318Z,4.07
2018-08-17T00:37:18.273Z,3.77
2018-08-17T00:39:44.219Z,3.83
2018-08-17T00:42:10.223Z,4.27
2018-08-17T00:44:36.180Z,5.67
2018-08-17T00:47:02.168Z,2.83
2018-08-17T00:49:28.160Z,4.23
2018-08-17T00:51:54.265Z,4.37
2018-08-17T00:54:20.235Z,4.17
2018-08-17T00:56:46.247Z,3.10
2018-08-17T00:59:12.208Z,3.50
2018-08-17T01:01:38.165Z,4.10
2018-08-17T01:04:04.884Z,3.83
2018-08-17T01:06:31.595Z,1.87
2018-08-17T01:08:57.591Z,2.13
2018-08-17T01:11:23.569Z,3.20
2018-08-17T01:13:49.577Z,2.67
2018-08-17T01:16:15.533Z,3.17
2018-08-17T01:18:42.230Z,3.67
2018-08-17T01:21:08.203Z,3.30
2018-08-17T01:23:34.151Z,2.30
2018-08-17T01:26:00.153Z,2.80
2018-08-17T01:28:26.123Z,3.23
2018-08-17T01:30:52.124Z,3.97
2018-08-17T01:33:18.101Z,3.43
2018-08-17T01:35:44.830Z,5.10
2018-08-17T01:38:10.786Z,5.20
2018-08-17T01:40:36.744Z,4.97
2018-08-17T01:43:02.729Z,4.20
2018-08-17T01:45:28.696Z,5.70
2018-08-17T01:47:54.694Z,12.80
2018-08-17T01:50:20.650Z,4.73
2018-08-17T01:52:46.629Z,4.43
2018-08-17T01:55:12.586Z,4.40
2018-08-17T01:57:38.569Z,5.03
2018-08-17T02:00:04.542Z,6.47
2018-08-17T02:02:30.597Z,4.57
2018-08-17T02:04:57.314Z,4.57
2018-08-17T02:07:23.314Z,5.47
2018-08-17T02:09:49.276Z,5.77
2018-08-17T02:12:15.261Z,5.83
2018-08-17T02:14:41.288Z,5.40
2018-08-17T02:17:07.212Z,9.23
2018-08-17T02:19:33.185Z,6.67
2018-08-17T02:22:00.311Z,8.33
2018-08-17T02:24:26.708Z,7.87
2018-08-17T02:26:52.668Z,8.43
2018-08-17T02:29:19.403Z,7.20
2018-08-17T02:31:45.346Z,8.20
2018-08-17T02:34:12.047Z,7.60
2018-08-17T02:36:38.036Z,6.90
2018-08-17T02:39:03.986Z,5.20
2018-08-17T02:41:29.987Z,8.13
2018-08-17T02:43:55.951Z,5.67
2018-08-17T02:46:21.936Z,7.47
2018-08-17T02:48:47.932Z,8.30
2018-08-17T02:51:13.965Z,6.13
2018-08-17T02:53:39.932Z,6.60
2018-08-17T02:56:05.877Z,5.87
2018-08-17T02:58:31.856Z,8.00
2018-08-17T03:00:57.801Z,5.00
2018-08-17T03:03:23.788Z,5.27
2018-08-17T03:05:49.731Z,4.37
2018-08-17T03:08:15.715Z,8.73
2018-08-17T03:10:42.412Z,6.10
2018-08-17T03:13:08.402Z,7.07
2018-08-17T03:15:34.385Z,4.83
2018-08-17T03:18:01.074Z,5.70
2018-08-17T03:20:27.047Z,5.10
2018-08-17T03:22:52.988Z,6.93
2018-08-17T03:25:18.962Z,5.33
2018-08-17T03:27:44.987Z,5.83
2018-08-17T03:30:10.960Z,6.47
2018-08-17T03:32:37.652Z,4.67
2018-08-17T03:35:03.638Z,6.57
2018-08-17T03:37:29.597Z,5.33
2018-08-17T03:39:55.593Z,8.07
2018-08-17T03:42:21.544Z,5.77
2018-08-17T03:44:47.511Z,6.50
2018-08-17T03:47:14.201Z,5.60
2018-08-17T03:49:40.173Z,4.70
2018-08-17T03:52:06.150Z,5.07
2018-08-17T03:54:32.105Z,4.80
2018-08-17T03:56:58.062Z,8.10
2018-08-17T03:59:24.017Z,12.30
2018-08-17T04:01:50.009Z,6.77
2018-08-17T04:04:15.959Z,8.13
2018-08-17T04:06:41.932Z,5.67
2018-08-17T04:09:08.623Z,6.90
2018-08-17T04:11:34.568Z,6.13
2018-08-17T04:14:00.599Z,6.37
2018-08-17T04:16:27.283Z,7.33
2018-08-17T04:18:53.253Z,7.73
2018-08-17T04:21:19.208Z,6.37
2018-08-17T04:23:45.245Z,7.23
2018-08-17T04:26:11.941Z,6.87
2018-08-17T04:28:37.962Z,7.03
2018-08-17T04:31:03.908Z,6.77
2018-08-17T04:33:30.633Z,9.97
2018-08-17T04:35:57.336Z,7.13
2018-08-17T04:38:23.290Z,6.13
2018-08-17T04:40:50.030Z,8.13
2018-08-17T04:43:16.747Z,6.40
2018-08-17T04:45:42.717Z,4.17
2018-08-17T04:48:08.694Z,6.20
2018-08-17T04:50:34.687Z,8.23
2018-08-17T04:53:00.702Z,7.37
2018-08-17T04:55:26.753Z,7.43
2018-08-17T04:57:52.713Z,9.37
2018-08-17T05:00:19.409Z,11.37
2018-08-17T05:02:45.399Z,5.40
2018-08-17T05:05:11.351Z,9.77
2018-08-17T05:07:37.326Z,6.73
2018-08-17T05:10:03.295Z,8.03
2018-08-17T05:12:29.292Z,6.50
2018-08-17T05:14:55.237Z,6.87
2018-08-17T05:17:21.234Z,7.83
2018-08-17T05:19:47.195Z,8.20
2018-08-17T05:22:13.159Z,8.03
2018-08-17T05:24:39.183Z,5.97
2018-08-17T05:27:05.909Z,9.77
2018-08-17T05:29:31.899Z,6.87
2018-08-17T05:31:57.949Z,8.93
2018-08-17T05:34:23.949Z,8.13
2018-08-17T05:36:49.925Z,6.00
2018-08-17T05:39:16.663Z,6.40
2018-08-17T05:41:43.380Z,6.97
2018-08-17T05:44:09.370Z,6.67
2018-08-17T05:46:35.324Z,8.63
2018-08-17T05:49:01.330Z,5.27
2018-08-17T05:51:27.296Z,6.20
2018-08-17T05:53:54.011Z,5.97
2018-08-17T05:56:20.061Z,8.97
2018-08-17T05:58:46.818Z,5.97
2018-08-17T06:01:13.525Z,7.53
2018-08-17T06:03:39.476Z,8.30
2018-08-17T06:06:05.455Z,5.87
2018-08-17T06:08:31.437Z,6.83
2018-08-17T06:10:57.508Z,7.53
2018-08-17T06:13:23.458Z,7.13
2018-08-17T06:15:50.179Z,6.90
2018-08-17T06:18:16.138Z,7.50
2018-08-17T06:20:42.130Z,7.50
2018-08-17T06:23:08.084Z,6.83
2018-08-17T06:25:34.092Z,7.23
2018-08-17T06:28:00.828Z,7.07
2018-08-17T06:30:27.508Z,5.17
2018-08-17T06:32:54.220Z,7.40
2018-08-17T06:35:20.916Z,8.37
2018-08-17T06:37:46.882Z,6.80
2018-08-17T06:40:13.629Z,5.43
2018-08-17T06:42:39.598Z,8.17
2018-08-17T06:45:05.546Z,6.13
2018-08-17T06:47:32.287Z,8.07
2018-08-17T06:49:59.017Z,9.07
2018-08-17T06:52:25.002Z,7.87
2018-08-17T06:54:50.979Z,6.47
2018-08-17T06:57:17.802Z,7.87
2018-08-17T06:59:43.697Z,7.80
2018-08-17T07:02:09.695Z,7.30
2018-08-17T07:04:35.673Z,6.00
2018-08-17T07:07:01.629Z,4.80
2018-08-17T07:09:27.661Z,7.93
2018-08-17T07:11:54.324Z,9.00
2018-08-17T07:14:20.314Z,9.27
2018-08-17T07:16:46.386Z,6.63
2018-08-17T07:19:13.044Z,7.53
2018-08-17T07:21:39.112Z,5.97
2018-08-17T07:24:05.049Z,8.80
2018-08-17T07:26:31.017Z,7.40
2018-08-17T07:28:56.981Z,6.57
2018-08-17T07:31:22.983Z,6.60
2018-08-17T07:33:49.692Z,7.33
2018-08-17T07:36:15.686Z,7.60
2018-08-17T07:38:42.505Z,7.43
2018-08-17T07:41:08.526Z,7.87
2018-08-17T07:43:34.498Z,7.93
2018-08-17T07:46:00.513Z,5.73
2018-08-17T07:48:26.494Z,7.27
2018-08-17T07:50:52.512Z,6.60
2018-08-17T07:53:18.512Z,8.47
2018-08-17T07:55:44.484Z,9.13
2018-08-17T07:58:10.505Z,8.73
2018-08-17T08:00:36.499Z,7.90
2018-08-17T08:03:03.235Z,6.63
2018-08-17T08:05:29.938Z,12.90
2018-08-17T08:07:55.927Z,8.67
2018-08-17T08:10:21.897Z,7.13
2018-08-17T08:12:47.888Z,8.63
2018-08-17T08:15:13.867Z,8.43
2018-08-17T08:17:40.587Z,6.23
2018-08-17T08:20:06.584Z,7.23
2018-08-17T08:22:32.564Z,7.10
2018-08-17T08:24:58.570Z,7.60
2018-08-17T08:27:24.545Z,6.47
2018-08-17T08:29:50.544Z,7.07
2018-08-17T08:32:16.566Z,6.17
2018-08-17T08:34:43.288Z,6.97
2018-08-17T08:37:10.028Z,7.03
2018-08-17T08:39:36.765Z,5.87
2018-08-17T08:42:03.484Z,5.80
2018-08-17T08:44:29.462Z,8.10
2018-08-17T08:47:02.440Z,6.10
2018-08-17T08:49:29.152Z,5.87
2018-08-17T08:51:55.904Z,5.60
2018-08-17T08:54:21.894Z,5.37
2018-08-17T08:56:47.853Z,6.77
2018-08-17T08:59:14.587Z,5.47
2018-08-17T09:01:40.616Z,5.10
2018-08-17T09:04:06.565Z,6.63
2018-08-17T09:06:32.533Z,4.70
2018-08-17T09:08:58.557Z,4.70
2018-08-17T09:11:24.497Z,5.97
2018-08-17T09:13:51.231Z,4.30
2018-08-17T09:16:17.307Z,6.07
2018-08-17T09:18:43.308Z,4.13
2018-08-17T09:21:09.318Z,3.47
2018-08-17T09:23:35.324Z,3.40
2018-08-17T09:26:02.066Z,4.20
2018-08-17T09:28:28.799Z,5.60
2018-08-17T09:30:55.537Z,4.90
2018-08-17T09:33:21.506Z,6.20
2018-08-17T09:35:47.516Z,5.17
2018-08-17T09:38:13.493Z,6.27
2018-08-17T09:40:39.474Z,10.03
2018-08-17T09:43:05.464Z,7.90
2018-08-17T09:45:32.178Z,9.47
2018-08-17T09:47:58.183Z,5.23
2018-08-17T09:50:24.171Z,5.87
2018-08-17T09:52:50.918Z,3.80
2018-08-17T09:55:16.902Z,5.90
2018-08-17T09:57:42.913Z,3.60
2018-08-17T10:00:08.914Z,4.77
2018-08-17T10:02:34.874Z,3.80
2018-08-17T10:05:00.866Z,4.57
2018-08-17T10:07:26.851Z,3.40
2018-08-17T10:09:52.862Z,5.03
2018-08-17T10:12:19.582Z,4.57
2018-08-17T10:14:45.596Z,5.43
2018-08-17T10:17:11.584Z,3.80
2018-08-17T10:19:37.566Z,2.60
2018-08-17T10:22:04.681Z,4.07
2018-08-17T10:24:30.337Z,4.90
2018-08-17T10:26:57.102Z,6.83
2018-08-17T10:29:23.099Z,3.13
2018-08-17T10:31:49.837Z,3.37
2018-08-17T10:34:16.564Z,2.23
2018-08-17T10:36:42.563Z,3.23
2018-08-17T10:39:08.527Z,4.83
2018-08-17T10:41:35.249Z,4.03
2018-08-17T10:44:01.219Z,3.10
2018-08-17T10:46:27.244Z,4.27
2018-08-17T10:48:53.276Z,7.20
2018-08-17T10:51:19.989Z,3.10
2018-08-17T10:53:46.697Z,3.23
2018-08-17T10:56:12.692Z,2.90
2018-08-17T10:58:38.676Z,6.77
2018-08-17T11:01:04.678Z,3.53
2018-08-17T11:03:31.404Z,5.53
2018-08-17T11:05:57.375Z,3.10
2018-08-17T11:08:23.395Z,4.93
2018-08-17T11:10:49.388Z,2.00
2018-08-17T11:13:16.140Z,3.50
2018-08-17T11:15:42.135Z,1.47
2018-08-17T11:18:08.136Z,6.47
2018-08-17T11:20:34.115Z,3.27
2018-08-17T11:23:00.184Z,2.97
2018-08-17T11:25:26.115Z,3.43
2018-08-17T11:27:52.084Z,1.50
2018-08-17T11:30:18.932Z,1.20
2018-08-17T11:32:44.915Z,2.70
2018-08-17T11:35:10.929Z,2.97
2018-08-17T11:37:37.174Z,4.20
2018-08-17T11:40:03.188Z,3.27
2018-08-17T11:42:29.159Z,5.50
2018-08-17T11:44:55.866Z,2.27
2018-08-17T11:47:21.858Z,2.60
2018-08-17T11:49:47.840Z,2.97
2018-08-17T11:52:13.868Z,2.03
2018-08-17T11:54:39.848Z,2.33
2018-08-17T11:57:05.870Z,5.10
2018-08-17T11:59:32.067Z,2.70
2018-08-17T12:01:58.160Z,1.73
2018-08-17T12:04:24.082Z,1.27
2018-08-17T12:06:50.833Z,2.83
2018-08-17T12:09:17.547Z,1.77
2018-08-17T12:11:43.523Z,4.07
2018-08-17T12:14:09.530Z,2.53
2018-08-17T12:16:35.491Z,3.60
2018-08-17T12:19:01.490Z,3.67
2018-08-17T12:21:27.483Z,2.80
2018-08-17T12:23:54.249Z,1.47
2018-08-17T12:26:20.213Z,2.13
2018-08-17T12:28:46.226Z,2.10
2018-08-17T12:31:12.208Z,3.50
2018-08-17T12:33:38.214Z,1.97
2018-08-17T12:36:04.926Z,5.03
2018-08-17T12:38:30.925Z,4.87
2018-08-17T12:40:56.889Z,4.23
2018-08-17T12:43:22.872Z,4.93
2018-08-17T12:45:48.858Z,2.10
2018-08-17T12:48:14.853Z,0.90
2018-08-17T12:50:40.863Z,2.60
2018-08-17T12:53:06.904Z,3.27
2018-08-17T12:55:32.967Z,2.40
2018-08-17T12:57:58.938Z,3.80
2018-08-17T13:00:24.926Z,3.27
2018-08-17T13:02:50.910Z,2.70
2018-08-17T13:05:16.898Z,2.93
2018-08-17T13:07:42.874Z,3.03
2018-08-17T13:10:08.864Z,2.47
2018-08-17T13:12:34.879Z,2.40
2018-08-17T13:15:00.846Z,1.80
2018-08-17T13:17:27.583Z,9.60
2018-08-17T13:19:53.557Z,2.43
2018-08-17T13:22:19.534Z,1.43
2018-08-17T13:24:45.597Z,2.53
2018-08-17T13:27:11.579Z,4.27
2018-08-17T13:29:37.585Z,3.27
2018-08-17T13:32:03.576Z,1.97
2018-08-17T13:34:29.582Z,2.17
2018-08-17T13:36:55.561Z,1.73
2018-08-17T13:39:21.572Z,2.73
2018-08-17T13:41:48.286Z,4.43
2018-08-17T13:44:14.260Z,3.63
2018-08-17T13:46:40.250Z,6.43
2018-08-17T13:49:07.027Z,2.17
2018-08-17T13:51:32.991Z,3.30
2018-08-17T13:53:58.956Z,4.17
2018-08-17T13:56:25.698Z,2.53
2018-08-17T13:58:51.709Z,4.80
2018-08-17T14:01:18.450Z,2.17
2018-08-17T14:03:44.458Z,2.20
2018-08-17T14:06:10.427Z,3.27
2018-08-17T14:08:36.418Z,2.70
2018-08-17T14:11:03.135Z,7.27
2018-08-17T14:13:29.122Z,3.50
2018-08-17T14:15:55.094Z,3.03
2018-08-17T14:18:21.308Z,2.43
2018-08-17T14:20:47.284Z,2.20
2018-08-17T14:23:13.276Z,2.10
2018-08-17T14:25:39.997Z,1.07
2018-08-17T14:28:06.006Z,2.50
2018-08-17T14:30:31.994Z,3.30
2018-08-17T14:32:57.969Z,1.10
2018-08-17T14:35:24.089Z,2.70
2018-08-17T14:37:49.951Z,2.60
2018-08-17T14:40:16.728Z,4.40
2018-08-17T14:42:42.677Z,2.40
2018-08-17T14:45:08.656Z,3.47
2018-08-17T14:47:34.641Z,2.93
2018-08-17T14:50:00.635Z,3.37
2018-08-17T14:52:26.596Z,1.60
2018-08-17T14:54:53.328Z,1.13
2018-08-17T14:57:20.095Z,1.30
2018-08-17T14:59:46.053Z,2.63
2018-08-17T15:02:12.050Z,3.77
2018-08-17T15:04:38.051Z,2.03
2018-08-17T15:07:04.788Z,2.00
2018-08-17T15:09:31.529Z,3.17
2018-08-17T15:11:57.501Z,2.63
2018-08-17T15:14:23.466Z,1.50
2018-08-17T15:16:50.195Z,1.77
2018-08-17T15:19:16.195Z,5.27
2018-08-17T15:21:42.175Z,2.50
2018-08-17T15:24:08.919Z,3.73
2018-08-17T15:26:34.921Z,2.53
2018-08-17T15:29:01.701Z,3.80
2018-08-17T15:31:27.723Z,1.80
2018-08-17T15:33:53.711Z,2.07
2018-08-17T15:36:20.431Z,2.77
2018-08-17T15:38:46.502Z,3.63
2018-08-17T15:41:12.599Z,2.40
2018-08-17T15:43:38.581Z,1.00
2018-08-17T15:46:04.635Z,2.63
2018-08-17T15:48:30.611Z,3.53
2018-08-17T15:50:56.630Z,1.70
2018-08-17T15:53:22.591Z,3.90
2018-08-17T15:55:48.583Z,1.87
2018-08-17T15:58:15.304Z,2.80
2018-08-17T16:00:41.381Z,1.63
2018-08-17T16:03:07.360Z,1.63
2018-08-17T16:05:33.349Z,4.20
2018-08-17T16:07:59.325Z,2.90
2018-08-17T16:10:25.355Z,3.47
2018-08-17T16:12:51.361Z,1.30
2018-08-17T16:15:17.356Z,2.53
2018-08-17T16:17:43.361Z,2.40
2018-08-17T16:20:09.349Z,2.50
2018-08-17T16:22:35.342Z,3.97
2018-08-17T16:25:01.331Z,1.00
2018-08-17T16:27:27.341Z,1.33
2018-08-17T16:29:53.331Z,2.50
2018-08-17T16:32:19.279Z,2.37
2018-08-17T16:34:45.266Z,3.63
2018-08-17T16:37:11.234Z,1.10
2018-08-17T16:39:37.228Z,2.50
2018-08-17T16:42:03.214Z,1.20
2018-08-17T16:44:29.967Z,3.30
2018-08-17T16:46:55.943Z,0.80
2018-08-17T16:49:22.036Z,1.90
2018-08-17T16:51:48.025Z,3.07
2018-08-17T16:54:14.759Z,2.10
2018-08-17T16:56:41.583Z,1.23
2018-08-17T16:59:08.470Z,2.77
2018-08-17T17:01:34.374Z,0.67
2018-08-17T17:04:00.374Z,1.80
2018-08-17T17:06:26.420Z,3.20
2018-08-17T17:08:52.412Z,2.23
2018-08-17T17:11:18.427Z,1.53
2018-08-17T17:13:44.445Z,1.20
2018-08-17T17:16:10.420Z,2.87
2018-08-17T17:18:37.169Z,1.60
2018-08-17T17:21:03.151Z,0.93
2018-08-17T17:23:29.139Z,0.90
2018-08-17T17:25:55.112Z,1.43
2018-08-17T17:28:21.102Z,2.57
2018-08-17T17:30:47.077Z,1.03
2018-08-17T17:33:13.088Z,1.57
2018-08-17T17:35:39.817Z,1.77
2018-08-17T17:38:05.797Z,1.20
2018-08-17T17:40:31.780Z,2.93
2018-08-17T17:42:57.744Z,2.03
2018-08-17T17:45:23.767Z,1.00
2018-08-17T17:47:49.756Z,0.70
2018-08-17T17:50:15.767Z,2.60
2018-08-17T17:52:41.746Z,1.23
2018-08-17T17:55:07.745Z,3.03
2018-08-17T17:57:33.712Z,1.37
2018-08-17T17:59:59.714Z,1.70
2018-08-17T18:02:25.766Z,9.67
2018-08-17T18:04:51.794Z,10.07
2018-08-17T18:07:17.767Z,9.83
2018-08-17T18:09:43.757Z,10.23
2018-08-17T18:12:10.542Z,10.20
2018-08-17T18:14:36.530Z,7.50
2018-08-17T18:17:03.262Z,5.30
2018-08-17T18:19:30.008Z,6.73
2018-08-17T18:21:56.022Z,0.80
2018-08-17T18:24:22.746Z,2.07
2018-08-17T18:26:49.500Z,3.97
2018-08-17T18:29:16.225Z,2.30
2018-08-17T18:31:42.216Z,3.57
2018-08-17T18:34:08.216Z,1.80
2018-08-17T18:36:34.205Z,1.60
2018-08-17T18:39:00.993Z,1.63
2018-08-17T18:41:27.059Z,1.00
2018-08-17T18:43:53.051Z,2.90
2018-08-17T18:46:19.032Z,1.57
2018-08-17T18:48:45.807Z,1.50
2018-08-17T18:51:11.787Z,1.57
2018-08-17T18:53:38.499Z,2.30
2018-08-17T18:56:04.506Z,2.73
2018-08-17T18:58:30.490Z,3.67
2018-08-17T19:00:56.477Z,1.80
2018-08-17T19:03:22.456Z,1.53
2018-08-17T19:05:48.488Z,2.97
2018-08-17T19:08:14.460Z,3.30
2018-08-17T19:10:40.447Z,2.80
2018-08-17T19:13:06.434Z,2.27
2018-08-17T19:15:32.441Z,4.07
2018-08-17T19:17:58.405Z,3.40
2018-08-17T19:20:24.460Z,2.63
2018-08-17T19:22:50.432Z,2.80
2018-08-17T19:25:16.431Z,2.43
2018-08-17T19:27:42.388Z,1.40
2018-08-17T19:30:08.364Z,3.13
2018-08-17T19:32:34.351Z,2.03
2018-08-17T19:35:00.349Z,4.10
2018-08-17T19:37:26.350Z,3.33
2018-08-17T19:39:53.058Z,3.97
2018-08-17T19:42:19.063Z,6.40
2018-08-17T19:44:45.049Z,7.57
2018-08-17T19:47:11.038Z,5.90
2018-08-17T19:49:37.014Z,6.43
2018-08-17T19:52:03.037Z,7.97
2018-08-17T19:54:29.062Z,9.47
2018-08-17T19:56:55.032Z,4.20
2018-08-17T19:59:21.052Z,5.63
2018-08-17T20:01:47.060Z,3.77
2018-08-17T20:04:13.055Z,5.30
2018-08-17T20:06:39.032Z,2.27
2018-08-17T20:09:05.069Z,4.17
2018-08-17T20:11:31.783Z,4.67
2018-08-17T20:13:57.817Z,5.37
2018-08-17T20:16:23.841Z,4.67
2018-08-17T20:18:49.802Z,5.20
2018-08-17T20:21:16.543Z,5.23
2018-08-17T20:23:43.253Z,2.20
2018-08-17T20:26:09.540Z,4.37
2018-08-17T20:28:35.241Z,5.37
2018-08-17T20:31:01.230Z,1.67
2018-08-17T20:33:27.949Z,2.33
2018-08-17T20:35:53.955Z,1.77
2018-08-17T20:38:19.915Z,2.00
2018-08-17T20:40:45.914Z,4.60
2018-08-17T20:43:11.900Z,2.17
2018-08-17T20:45:37.915Z,2.63
2018-08-17T20:48:03.890Z,3.27
2018-08-17T20:50:29.880Z,2.60
2018-08-17T20:52:55.868Z,3.43
2018-08-17T20:55:22.608Z,2.90
2018-08-17T20:57:48.569Z,3.33
2018-08-17T21:00:14.590Z,2.80
2018-08-17T21:02:40.606Z,2.73
2018-08-17T21:05:06.658Z,2.47
2018-08-17T21:07:32.639Z,3.27
2018-08-17T21:09:58.617Z,2.20
2018-08-17T21:12:24.590Z,5.50
2018-08-17T21:14:50.541Z,4.83
2018-08-17T21:17:16.543Z,3.63
2018-08-17T21:19:42.515Z,3.17
2018-08-17T21:22:08.513Z,2.77
2018-08-17T21:24:34.464Z,3.30
2018-08-17T21:27:00.448Z,4.17
2018-08-17T21:29:26.634Z,3.67
2018-08-17T21:31:52.406Z,3.37
2018-08-17T21:34:18.407Z,2.80
2018-08-17T21:36:44.370Z,2.03
2018-08-17T21:39:10.958Z,3.80
2018-08-17T21:41:36.930Z,3.50
2018-08-17T21:44:03.180Z,2.57
2018-08-17T21:46:29.128Z,3.23
2018-08-17T21:48:55.113Z,3.57
2018-08-17T21:51:21.103Z,2.00
2018-08-17T21:53:47.066Z,2.23
2018-08-17T21:56:13.067Z,3.60
2018-08-17T21:58:39.031Z,3.33
2018-08-17T22:01:05.737Z,3.70
2018-08-17T22:03:31.715Z,2.97
2018-08-17T22:05:57.700Z,2.90
2018-08-17T22:08:24.409Z,4.80
2018-08-17T22:10:50.452Z,2.80
2018-08-17T22:13:16.412Z,2.53
2018-08-17T22:15:43.139Z,3.10
2018-08-17T22:18:09.844Z,3.47
2018-08-17T22:20:35.863Z,3.10
2018-08-17T22:23:01.811Z,3.13
2018-08-17T22:25:27.763Z,3.20
2018-08-17T22:27:53.746Z,2.53
2018-08-17T22:30:19.751Z,4.07
2018-08-17T22:32:45.704Z,3.23
2018-08-17T22:35:11.680Z,4.50
2018-08-17T22:37:37.706Z,4.30
2018-08-17T22:40:03.667Z,5.70
2018-08-17T22:42:29.619Z,3.90
2018-08-17T22:44:56.341Z,4.53
2018-08-17T22:47:22.298Z,2.63
2018-08-17T22:49:48.283Z,3.60
2018-08-17T22:52:14.284Z,5.27
2018-08-17T22:54:40.287Z,4.00
2018-08-17T22:57:06.263Z,3.67
2018-08-17T22:59:33.001Z,4.03
2018-08-17T23:01:59.709Z,5.37
2018-08-17T23:04:25.709Z,5.93
2018-08-17T23:06:51.728Z,5.03
2018-08-17T23:09:17.685Z,8.10
2018-08-17T23:11:44.444Z,4.37
2018-08-17T23:14:10.428Z,5.27
2018-08-17T23:16:36.441Z,4.97
2018-08-17T23:19:02.394Z,3.47
2018-08-17T23:21:28.396Z,5.27
2018-08-17T23:23:54.415Z,5.20
2018-08-17T23:26:20.386Z,7.07
2018-08-17T23:28:47.097Z,5.13
2018-08-17T23:31:13.082Z,5.57
2018-08-17T23:33:39.054Z,6.60
2018-08-17T23:36:05.039Z,5.77
2018-08-17T23:38:30.988Z,5.57
2018-08-17T23:40:56.974Z,5.70
2018-08-17T23:43:22.927Z,4.73
2018-08-17T23:45:48.934Z,4.17
2018-08-17T23:48:14.897Z,5.83
2018-08-17T23:50:40.852Z,6.00
2018-08-17T23:53:06.901Z,4.80
2018-08-17T23:55:33.560Z,5.23
2018-08-17T23:57:59.561Z,5.03
